sensor_id;sensor_type;location;lat;lon;timestamp;P1;durP1;ratioP1;P2;durP2;ratioP2
32872;SDS011;19224;52.462;16.898;2023-10-08T00:01:14;7.67;;;2.77;;
32872;SDS011;19224;52.462;16.898;2023-10-08T00:03:48;7.00;;;2.90;;
32872;SDS011;19224;52.462;16.898;2023-10-08T00:06:19;14.65;;;2.62;;
32872;SDS011;19224;52.462;16.898;2023-10-08T00:08:51;10.28;;;2.70;;
32872;SDS011;19224;52.462;16.898;2023-10-08T00:11:23;9.68;;;2.98;;
32872;SDS011;19224;52.462;16.898;2023-10-08T00:13:53;10.05;;;3.15;;
32872;SDS011;19224;52.462;16.898;2023-10-08T00:16:24;9.85;;;3.27;;
32872;SDS011;19224;52.462;16.898;2023-10-08T00:18:56;7.08;;;2.47;;
32872;SDS011;19224;52.462;16.898;2023-10-08T00:21:27;11.75;;;3.33;;
32872;SDS011;19224;52.462;16.898;2023-10-08T00:24:00;8.05;;;2.83;;
32872;SDS011;19224;52.462;16.898;2023-10-08T00:26:33;10.13;;;3.27;;
32872;SDS011;19224;52.462;16.898;2023-10-08T00:29:06;9.60;;;3.37;;
32872;SDS011;19224;52.462;16.898;2023-10-08T00:31:44;13.40;;;2.98;;
32872;SDS011;19224;52.462;16.898;2023-10-08T00:34:17;17.75;;;3.25;;
32872;SDS011;19224;52.462;16.898;2023-10-08T00:36:48;8.68;;;3.00;;
32872;SDS011;19224;52.462;16.898;2023-10-08T00:39:19;11.15;;;3.10;;
32872;SDS011;19224;52.462;16.898;2023-10-08T00:41:54;11.73;;;3.95;;
32872;SDS011;19224;52.462;16.898;2023-10-08T00:44:26;13.85;;;3.37;;
32872;SDS011;19224;52.462;16.898;2023-10-08T00:47:01;8.45;;;2.92;;
32872;SDS011;19224;52.462;16.898;2023-10-08T00:49:33;7.08;;;2.22;;
32872;SDS011;19224;52.462;16.898;2023-10-08T00:52:11;11.45;;;2.75;;
32872;SDS011;19224;52.462;16.898;2023-10-08T00:54:45;9.73;;;3.02;;
32872;SDS011;19224;52.462;16.898;2023-10-08T00:57:27;11.00;;;3.40;;
32872;SDS011;19224;52.462;16.898;2023-10-08T01:00:00;8.08;;;2.75;;
32872;SDS011;19224;52.462;16.898;2023-10-08T01:02:34;11.30;;;3.35;;
32872;SDS011;19224;52.462;16.898;2023-10-08T01:05:17;8.95;;;3.15;;
32872;SDS011;19224;52.462;16.898;2023-10-08T01:07:49;9.93;;;3.58;;
32872;SDS011;19224;52.462;16.898;2023-10-08T01:10:21;10.75;;;3.00;;
32872;SDS011;19224;52.462;16.898;2023-10-08T01:12:53;14.18;;;3.30;;
32872;SDS011;19224;52.462;16.898;2023-10-08T01:15:28;15.78;;;3.90;;
32872;SDS011;19224;52.462;16.898;2023-10-08T01:18:01;12.95;;;3.27;;
32872;SDS011;19224;52.462;16.898;2023-10-08T01:20:34;13.55;;;3.27;;
32872;SDS011;19224;52.462;16.898;2023-10-08T01:23:05;8.53;;;3.40;;
32872;SDS011;19224;52.462;16.898;2023-10-08T01:25:49;8.13;;;2.80;;
32872;SDS011;19224;52.462;16.898;2023-10-08T01:28:20;11.25;;;3.20;;
32872;SDS011;19224;52.462;16.898;2023-10-08T01:30:54;11.73;;;3.45;;
32872;SDS011;19224;52.462;16.898;2023-10-08T01:33:31;9.80;;;3.00;;
32872;SDS011;19224;52.462;16.898;2023-10-08T01:36:06;7.47;;;2.98;;
32872;SDS011;19224;52.462;16.898;2023-10-08T01:38:38;10.38;;;3.55;;
32872;SDS011;19224;52.462;16.898;2023-10-08T01:41:10;9.23;;;3.27;;
32872;SDS011;19224;52.462;16.898;2023-10-08T01:43:49;9.85;;;2.92;;
32872;SDS011;19224;52.462;16.898;2023-10-08T01:46:19;10.82;;;3.10;;
32872;SDS011;19224;52.462;16.898;2023-10-08T01:48:50;8.45;;;2.90;;
32872;SDS011;19224;52.462;16.898;2023-10-08T01:51:25;9.33;;;3.00;;
32872;SDS011;19224;52.462;16.898;2023-10-08T01:53:57;8.40;;;3.00;;
32872;SDS011;19224;52.462;16.898;2023-10-08T01:56:27;8.65;;;3.22;;
32872;SDS011;19224;52.462;16.898;2023-10-08T01:58:58;8.13;;;3.00;;
32872;SDS011;19224;52.462;16.898;2023-10-08T02:01:28;10.08;;;3.25;;
32872;SDS011;19224;52.462;16.898;2023-10-08T02:03:58;5.40;;;2.58;;
32872;SDS011;19224;52.462;16.898;2023-10-08T02:06:29;11.12;;;3.55;;
32872;SDS011;19224;52.462;16.898;2023-10-08T02:09:00;6.78;;;3.22;;
32872;SDS011;19224;52.462;16.898;2023-10-08T02:11:46;7.35;;;3.08;;
32872;SDS011;19224;52.462;16.898;2023-10-08T02:14:17;8.90;;;3.00;;
32872;SDS011;19224;52.462;16.898;2023-10-08T02:16:50;8.30;;;2.87;;
32872;SDS011;19224;52.462;16.898;2023-10-08T02:19:24;10.32;;;2.83;;
32872;SDS011;19224;52.462;16.898;2023-10-08T02:21:57;12.25;;;3.33;;
32872;SDS011;19224;52.462;16.898;2023-10-08T02:24:27;10.20;;;2.95;;
32872;SDS011;19224;52.462;16.898;2023-10-08T02:26:59;10.72;;;3.15;;
32872;SDS011;19224;52.462;16.898;2023-10-08T02:29:30;9.58;;;3.20;;
32872;SDS011;19224;52.462;16.898;2023-10-08T02:32:00;6.67;;;2.65;;
32872;SDS011;19224;52.462;16.898;2023-10-08T02:34:32;10.58;;;3.33;;
32872;SDS011;19224;52.462;16.898;2023-10-08T02:37:03;9.13;;;3.30;;
32872;SDS011;19224;52.462;16.898;2023-10-08T02:39:33;10.72;;;3.27;;
32872;SDS011;19224;52.462;16.898;2023-10-08T02:42:05;12.50;;;3.25;;
32872;SDS011;19224;52.462;16.898;2023-10-08T02:44:37;8.15;;;3.05;;
32872;SDS011;19224;52.462;16.898;2023-10-08T02:47:10;5.28;;;2.35;;
32872;SDS011;19224;52.462;16.898;2023-10-08T02:49:43;9.33;;;2.62;;
32872;SDS011;19224;52.462;16.898;2023-10-08T02:52:15;9.60;;;2.83;;
32872;SDS011;19224;52.462;16.898;2023-10-08T02:54:45;6.85;;;2.35;;
32872;SDS011;19224;52.462;16.898;2023-10-08T02:57:17;8.38;;;2.98;;
32872;SDS011;19224;52.462;16.898;2023-10-08T02:59:49;6.75;;;2.83;;
32872;SDS011;19224;52.462;16.898;2023-10-08T03:02:21;11.08;;;2.98;;
32872;SDS011;19224;52.462;16.898;2023-10-08T03:04:52;6.40;;;2.42;;
32872;SDS011;19224;52.462;16.898;2023-10-08T03:07:24;7.70;;;2.85;;
32872;SDS011;19224;52.462;16.898;2023-10-08T03:10:00;11.43;;;2.95;;
32872;SDS011;19224;52.462;16.898;2023-10-08T03:12:33;8.93;;;2.50;;
32872;SDS011;19224;52.462;16.898;2023-10-08T03:15:04;8.95;;;2.42;;
32872;SDS011;19224;52.462;16.898;2023-10-08T03:17:41;8.68;;;2.37;;
32872;SDS011;19224;52.462;16.898;2023-10-08T03:20:19;13.08;;;2.87;;
32872;SDS011;19224;52.462;16.898;2023-10-08T03:23:09;6.55;;;2.60;;
32872;SDS011;19224;52.462;16.898;2023-10-08T03:25:42;5.55;;;2.02;;
32872;SDS011;19224;52.462;16.898;2023-10-08T03:28:14;5.40;;;2.20;;
32872;SDS011;19224;52.462;16.898;2023-10-08T03:30:44;5.17;;;2.17;;
32872;SDS011;19224;52.462;16.898;2023-10-08T03:33:22;5.47;;;1.80;;
32872;SDS011;19224;52.462;16.898;2023-10-08T03:35:54;6.05;;;2.00;;
32872;SDS011;19224;52.462;16.898;2023-10-08T03:38:24;6.80;;;2.05;;
32872;SDS011;19224;52.462;16.898;2023-10-08T03:41:00;6.55;;;1.80;;
32872;SDS011;19224;52.462;16.898;2023-10-08T03:43:32;5.50;;;1.67;;
32872;SDS011;19224;52.462;16.898;2023-10-08T03:46:04;6.08;;;1.52;;
32872;SDS011;19224;52.462;16.898;2023-10-08T03:48:35;8.48;;;2.58;;
32872;SDS011;19224;52.462;16.898;2023-10-08T03:51:06;4.65;;;1.40;;
32872;SDS011;19224;52.462;16.898;2023-10-08T03:53:39;6.10;;;1.42;;
32872;SDS011;19224;52.462;16.898;2023-10-08T03:56:29;5.78;;;2.00;;
32872;SDS011;19224;52.462;16.898;2023-10-08T03:58:59;5.97;;;1.77;;
32872;SDS011;19224;52.462;16.898;2023-10-08T04:01:31;6.97;;;1.92;;
32872;SDS011;19224;52.462;16.898;2023-10-08T04:04:02;7.85;;;1.92;;
32872;SDS011;19224;52.462;16.898;2023-10-08T04:06:35;4.67;;;1.70;;
32872;SDS011;19224;52.462;16.898;2023-10-08T04:09:06;2.83;;;1.50;;
32872;SDS011;19224;52.462;16.898;2023-10-08T04:11:36;4.72;;;1.30;;
32872;SDS011;19224;52.462;16.898;2023-10-08T04:14:19;4.05;;;1.42;;
32872;SDS011;19224;52.462;16.898;2023-10-08T04:16:51;3.33;;;1.27;;
32872;SDS011;19224;52.462;16.898;2023-10-08T04:19:22;5.80;;;1.52;;
32872;SDS011;19224;52.462;16.898;2023-10-08T04:21:56;3.47;;;1.15;;
32872;SDS011;19224;52.462;16.898;2023-10-08T04:24:28;3.05;;;1.20;;
32872;SDS011;19224;52.462;16.898;2023-10-08T04:27:04;5.78;;;1.30;;
32872;SDS011;19224;52.462;16.898;2023-10-08T04:29:36;3.95;;;1.30;;
32872;SDS011;19224;52.462;16.898;2023-10-08T04:32:08;8.53;;;1.40;;
32872;SDS011;19224;52.462;16.898;2023-10-08T04:34:43;4.12;;;1.35;;
32872;SDS011;19224;52.462;16.898;2023-10-08T04:37:15;1.62;;;0.90;;
32872;SDS011;19224;52.462;16.898;2023-10-08T04:39:48;5.00;;;1.12;;
32872;SDS011;19224;52.462;16.898;2023-10-08T04:42:20;3.98;;;1.05;;
32872;SDS011;19224;52.462;16.898;2023-10-08T04:44:52;2.85;;;0.90;;
32872;SDS011;19224;52.462;16.898;2023-10-08T04:47:22;4.53;;;1.17;;
32872;SDS011;19224;52.462;16.898;2023-10-08T04:49:57;3.10;;;1.02;;
32872;SDS011;19224;52.462;16.898;2023-10-08T04:52:29;3.70;;;1.07;;
32872;SDS011;19224;52.462;16.898;2023-10-08T04:55:01;3.72;;;0.95;;
32872;SDS011;19224;52.462;16.898;2023-10-08T04:57:35;2.70;;;1.00;;
32872;SDS011;19224;52.462;16.898;2023-10-08T05:00:05;5.75;;;1.10;;
32872;SDS011;19224;52.462;16.898;2023-10-08T05:02:38;3.17;;;0.90;;
32872;SDS011;19224;52.462;16.898;2023-10-08T05:05:18;9.70;;;1.10;;
32872;SDS011;19224;52.462;16.898;2023-10-08T05:07:48;1.80;;;0.82;;
32872;SDS011;19224;52.462;16.898;2023-10-08T05:10:18;2.47;;;0.90;;
32872;SDS011;19224;52.462;16.898;2023-10-08T05:12:52;1.80;;;0.78;;
32872;SDS011;19224;52.462;16.898;2023-10-08T05:15:27;1.02;;;0.72;;
32872;SDS011;19224;52.462;16.898;2023-10-08T05:18:03;2.90;;;0.70;;
32872;SDS011;19224;52.462;16.898;2023-10-08T05:20:39;3.83;;;0.88;;
32872;SDS011;19224;52.462;16.898;2023-10-08T05:23:18;1.07;;;0.70;;
32872;SDS011;19224;52.462;16.898;2023-10-08T05:25:51;2.52;;;0.88;;
32872;SDS011;19224;52.462;16.898;2023-10-08T05:28:39;2.00;;;0.88;;
32872;SDS011;19224;52.462;16.898;2023-10-08T05:31:30;3.00;;;1.02;;
32872;SDS011;19224;52.462;16.898;2023-10-08T05:34:16;2.87;;;0.90;;
32872;SDS011;19224;52.462;16.898;2023-10-08T05:36:48;1.72;;;0.90;;
32872;SDS011;19224;52.462;16.898;2023-10-08T05:39:21;1.47;;;0.80;;
32872;SDS011;19224;52.462;16.898;2023-10-08T05:42:10;3.52;;;0.80;;
32872;SDS011;19224;52.462;16.898;2023-10-08T05:44:51;1.20;;;0.65;;
32872;SDS011;19224;52.462;16.898;2023-10-08T05:47:32;3.87;;;1.07;;
32872;SDS011;19224;52.462;16.898;2023-10-08T05:50:03;4.35;;;0.65;;
32872;SDS011;19224;52.462;16.898;2023-10-08T05:52:47;4.03;;;0.75;;
32872;SDS011;19224;52.462;16.898;2023-10-08T05:55:27;4.08;;;0.80;;
32872;SDS011;19224;52.462;16.898;2023-10-08T05:58:03;1.40;;;0.80;;
32872;SDS011;19224;52.462;16.898;2023-10-08T06:00:46;1.60;;;0.70;;
32872;SDS011;19224;52.462;16.898;2023-10-08T06:03:17;2.42;;;0.93;;
32872;SDS011;19224;52.462;16.898;2023-10-08T06:06:06;3.02;;;0.85;;
32872;SDS011;19224;52.462;16.898;2023-10-08T06:08:37;3.45;;;0.90;;
32872;SDS011;19224;52.462;16.898;2023-10-08T06:11:22;3.62;;;1.10;;
32872;SDS011;19224;52.462;16.898;2023-10-08T06:14:10;1.87;;;1.00;;
32872;SDS011;19224;52.462;16.898;2023-10-08T06:16:48;1.87;;;0.98;;
32872;SDS011;19224;52.462;16.898;2023-10-08T06:19:22;2.80;;;1.30;;
32872;SDS011;19224;52.462;16.898;2023-10-08T06:21:53;4.62;;;2.00;;
32872;SDS011;19224;52.462;16.898;2023-10-08T06:24:23;3.95;;;1.17;;
32872;SDS011;19224;52.462;16.898;2023-10-08T06:26:54;3.10;;;1.20;;
32872;SDS011;19224;52.462;16.898;2023-10-08T06:29:24;3.98;;;1.30;;
32872;SDS011;19224;52.462;16.898;2023-10-08T06:31:56;5.45;;;1.07;;
32872;SDS011;19224;52.462;16.898;2023-10-08T06:34:30;1.72;;;0.90;;
32872;SDS011;19224;52.462;16.898;2023-10-08T06:37:00;2.55;;;1.10;;
32872;SDS011;19224;52.462;16.898;2023-10-08T06:39:31;4.22;;;1.30;;
32872;SDS011;19224;52.462;16.898;2023-10-08T06:42:04;1.77;;;1.00;;
32872;SDS011;19224;52.462;16.898;2023-10-08T06:44:35;2.83;;;1.20;;
32872;SDS011;19224;52.462;16.898;2023-10-08T06:47:08;3.17;;;1.05;;
32872;SDS011;19224;52.462;16.898;2023-10-08T06:49:39;2.60;;;1.05;;
32872;SDS011;19224;52.462;16.898;2023-10-08T06:52:09;1.55;;;1.00;;
32872;SDS011;19224;52.462;16.898;2023-10-08T06:54:41;3.00;;;0.90;;
32872;SDS011;19224;52.462;16.898;2023-10-08T06:57:12;3.65;;;1.00;;
32872;SDS011;19224;52.462;16.898;2023-10-08T06:59:42;2.83;;;0.90;;
32872;SDS011;19224;52.462;16.898;2023-10-08T07:02:13;2.47;;;1.10;;
32872;SDS011;19224;52.462;16.898;2023-10-08T07:04:45;1.15;;;0.85;;
32872;SDS011;19224;52.462;16.898;2023-10-08T07:07:15;3.05;;;1.25;;
32872;SDS011;19224;52.462;16.898;2023-10-08T07:09:46;2.27;;;0.90;;
32872;SDS011;19224;52.462;16.898;2023-10-08T07:12:18;2.47;;;1.00;;
32872;SDS011;19224;52.462;16.898;2023-10-08T07:14:50;4.20;;;0.90;;
32872;SDS011;19224;52.462;16.898;2023-10-08T07:17:22;3.33;;;1.27;;
32872;SDS011;19224;52.462;16.898;2023-10-08T07:19:54;4.78;;;1.02;;
32872;SDS011;19224;52.462;16.898;2023-10-08T07:22:25;2.85;;;0.88;;
32872;SDS011;19224;52.462;16.898;2023-10-08T07:24:56;2.40;;;0.80;;
32872;SDS011;19224;52.462;16.898;2023-10-08T07:27:27;1.47;;;0.80;;
32872;SDS011;19224;52.462;16.898;2023-10-08T07:30:02;1.47;;;0.75;;
32872;SDS011;19224;52.462;16.898;2023-10-08T07:32:41;2.12;;;0.90;;
32872;SDS011;19224;52.462;16.898;2023-10-08T07:35:07;4.55;;;0.70;;
32872;SDS011;19224;52.462;16.898;2023-10-08T07:37:53;2.15;;;0.75;;
32872;SDS011;19224;52.462;16.898;2023-10-08T07:40:23;2.05;;;0.88;;
32872;SDS011;19224;52.462;16.898;2023-10-08T07:42:58;1.47;;;0.78;;
32872;SDS011;19224;52.462;16.898;2023-10-08T07:45:30;1.40;;;0.70;;
32872;SDS011;19224;52.462;16.898;2023-10-08T07:48:02;3.15;;;0.68;;
32872;SDS011;19224;52.462;16.898;2023-10-08T07:50:35;1.50;;;0.65;;
32872;SDS011;19224;52.462;16.898;2023-10-08T07:53:10;1.32;;;0.70;;
32872;SDS011;19224;52.462;16.898;2023-10-08T07:55:44;1.62;;;0.60;;
32872;SDS011;19224;52.462;16.898;2023-10-08T07:58:15;1.17;;;0.60;;
32872;SDS011;19224;52.462;16.898;2023-10-08T08:00:48;0.93;;;0.50;;
32872;SDS011;19224;52.462;16.898;2023-10-08T08:03:21;1.27;;;0.68;;
32872;SDS011;19224;52.462;16.898;2023-10-08T08:05:53;5.80;;;0.80;;
32872;SDS011;19224;52.462;16.898;2023-10-08T08:08:23;1.67;;;0.62;;
32872;SDS011;19224;52.462;16.898;2023-10-08T08:10:55;2.50;;;0.45;;
32872;SDS011;19224;52.462;16.898;2023-10-08T08:13:30;1.52;;;0.47;;
32872;SDS011;19224;52.462;16.898;2023-10-08T08:16:02;3.62;;;0.45;;
32872;SDS011;19224;52.462;16.898;2023-10-08T08:18:37;0.75;;;0.40;;
32872;SDS011;19224;52.462;16.898;2023-10-08T08:21:11;0.90;;;0.47;;
32872;SDS011;19224;52.462;16.898;2023-10-08T08:23:45;1.15;;;0.40;;
32872;SDS011;19224;52.462;16.898;2023-10-08T08:26:19;1.17;;;0.60;;
32872;SDS011;19224;52.462;16.898;2023-10-08T08:28:56;1.20;;;0.60;;
32872;SDS011;19224;52.462;16.898;2023-10-08T08:31:31;1.85;;;0.50;;
32872;SDS011;19224;52.462;16.898;2023-10-08T08:34:05;2.47;;;0.47;;
32872;SDS011;19224;52.462;16.898;2023-10-08T08:36:39;0.98;;;0.55;;
32872;SDS011;19224;52.462;16.898;2023-10-08T08:39:12;5.28;;;0.60;;
32872;SDS011;19224;52.462;16.898;2023-10-08T08:41:43;0.93;;;0.47;;
32872;SDS011;19224;52.462;16.898;2023-10-08T08:44:16;2.30;;;0.68;;
32872;SDS011;19224;52.462;16.898;2023-10-08T08:46:48;0.78;;;0.53;;
32872;SDS011;19224;52.462;16.898;2023-10-08T08:49:21;1.65;;;0.53;;
32872;SDS011;19224;52.462;16.898;2023-10-08T08:51:52;0.78;;;0.47;;
32872;SDS011;19224;52.462;16.898;2023-10-08T08:54:24;2.22;;;0.50;;
32872;SDS011;19224;52.462;16.898;2023-10-08T08:56:55;1.85;;;0.60;;
32872;SDS011;19224;52.462;16.898;2023-10-08T08:59:27;1.50;;;0.37;;
32872;SDS011;19224;52.462;16.898;2023-10-08T09:01:58;1.05;;;0.42;;
32872;SDS011;19224;52.462;16.898;2023-10-08T09:04:32;0.75;;;0.50;;
32872;SDS011;19224;52.462;16.898;2023-10-08T09:07:04;0.72;;;0.53;;
32872;SDS011;19224;52.462;16.898;2023-10-08T09:09:35;2.62;;;0.55;;
32872;SDS011;19224;52.462;16.898;2023-10-08T09:12:07;0.90;;;0.30;;
32872;SDS011;19224;52.462;16.898;2023-10-08T09:14:38;0.80;;;0.50;;
32872;SDS011;19224;52.462;16.898;2023-10-08T09:17:12;1.22;;;0.40;;
32872;SDS011;19224;52.462;16.898;2023-10-08T09:19:45;0.82;;;0.60;;
32872;SDS011;19224;52.462;16.898;2023-10-08T09:22:17;1.57;;;1.10;;
32872;SDS011;19224;52.462;16.898;2023-10-08T09:24:49;0.90;;;0.33;;
32872;SDS011;19224;52.462;16.898;2023-10-08T09:27:20;1.00;;;0.50;;
32872;SDS011;19224;52.462;16.898;2023-10-08T09:29:52;2.42;;;0.45;;
32872;SDS011;19224;52.462;16.898;2023-10-08T09:32:24;1.37;;;0.37;;
32872;SDS011;19224;52.462;16.898;2023-10-08T09:34:56;1.47;;;0.60;;
32872;SDS011;19224;52.462;16.898;2023-10-08T09:37:27;1.95;;;0.45;;
32872;SDS011;19224;52.462;16.898;2023-10-08T09:39:58;1.52;;;0.60;;
32872;SDS011;19224;52.462;16.898;2023-10-08T09:42:31;0.50;;;0.40;;
32872;SDS011;19224;52.462;16.898;2023-10-08T09:45:07;2.98;;;0.70;;
32872;SDS011;19224;52.462;16.898;2023-10-08T09:47:41;0.65;;;0.40;;
32872;SDS011;19224;52.462;16.898;2023-10-08T09:50:14;0.57;;;0.50;;
32872;SDS011;19224;52.462;16.898;2023-10-08T09:52:49;0.57;;;0.40;;
32872;SDS011;19224;52.462;16.898;2023-10-08T09:55:49;1.15;;;0.50;;
32872;SDS011;19224;52.462;16.898;2023-10-08T09:58:26;0.80;;;0.42;;
32872;SDS011;19224;52.462;16.898;2023-10-08T10:00:57;1.00;;;0.60;;
32872;SDS011;19224;52.462;16.898;2023-10-08T10:03:29;0.82;;;0.50;;
32872;SDS011;19224;52.462;16.898;2023-10-08T10:06:01;1.82;;;0.60;;
32872;SDS011;19224;52.462;16.898;2023-10-08T10:08:34;0.85;;;0.40;;
32872;SDS011;19224;52.462;16.898;2023-10-08T10:11:05;1.55;;;0.57;;
32872;SDS011;19224;52.462;16.898;2023-10-08T10:13:40;1.77;;;0.60;;
32872;SDS011;19224;52.462;16.898;2023-10-08T10:16:18;0.70;;;0.60;;
32872;SDS011;19224;52.462;16.898;2023-10-08T10:18:51;1.10;;;0.55;;
32872;SDS011;19224;52.462;16.898;2023-10-08T10:21:28;1.60;;;0.62;;
32872;SDS011;19224;52.462;16.898;2023-10-08T10:24:02;0.60;;;0.30;;
32872;SDS011;19224;52.462;16.898;2023-10-08T10:26:36;2.30;;;0.80;;
32872;SDS011;19224;52.462;16.898;2023-10-08T10:31:44;1.02;;;0.50;;
32872;SDS011;19224;52.462;16.898;2023-10-08T10:34:17;1.92;;;0.60;;
32872;SDS011;19224;52.462;16.898;2023-10-08T10:36:56;1.45;;;0.60;;
32872;SDS011;19224;52.462;16.898;2023-10-08T10:39:29;2.12;;;0.50;;
32872;SDS011;19224;52.462;16.898;2023-10-08T10:42:02;0.30;;;0.30;;
32872;SDS011;19224;52.462;16.898;2023-10-08T10:44:34;1.00;;;0.50;;
32872;SDS011;19224;52.462;16.898;2023-10-08T10:47:09;2.12;;;0.50;;
32872;SDS011;19224;52.462;16.898;2023-10-08T10:49:47;0.72;;;0.33;;
32872;SDS011;19224;52.462;16.898;2023-10-08T10:52:22;2.95;;;0.33;;
32872;SDS011;19224;52.462;16.898;2023-10-08T10:55:14;3.60;;;0.70;;
32872;SDS011;19224;52.462;16.898;2023-10-08T10:57:55;2.22;;;0.90;;
32872;SDS011;19224;52.462;16.898;2023-10-08T11:00:44;0.80;;;0.53;;
32872;SDS011;19224;52.462;16.898;2023-10-08T11:03:15;0.72;;;0.60;;
32872;SDS011;19224;52.462;16.898;2023-10-08T11:05:48;1.52;;;0.72;;
32872;SDS011;19224;52.462;16.898;2023-10-08T11:08:22;1.47;;;0.53;;
32872;SDS011;19224;52.462;16.898;2023-10-08T11:10:53;2.95;;;0.65;;
32872;SDS011;19224;52.462;16.898;2023-10-08T11:13:26;0.72;;;0.50;;
32872;SDS011;19224;52.462;16.898;2023-10-08T11:16:02;1.92;;;0.70;;
32872;SDS011;19224;52.462;16.898;2023-10-08T11:18:42;1.52;;;0.70;;
32872;SDS011;19224;52.462;16.898;2023-10-08T11:21:14;2.25;;;0.93;;
32872;SDS011;19224;52.462;16.898;2023-10-08T11:23:47;2.20;;;1.00;;
32872;SDS011;19224;52.462;16.898;2023-10-08T11:26:24;4.35;;;1.30;;
32872;SDS011;19224;52.462;16.898;2023-10-08T11:29:04;2.45;;;0.60;;
32872;SDS011;19224;52.462;16.898;2023-10-08T11:31:37;1.35;;;0.55;;
32872;SDS011;19224;52.462;16.898;2023-10-08T11:34:10;0.35;;;0.35;;
32872;SDS011;19224;52.462;16.898;2023-10-08T11:36:40;2.75;;;0.60;;
32872;SDS011;19224;52.462;16.898;2023-10-08T11:39:17;1.42;;;0.35;;
32872;SDS011;19224;52.462;16.898;2023-10-08T11:41:58;1.00;;;0.50;;
32872;SDS011;19224;52.462;16.898;2023-10-08T11:44:33;1.00;;;0.35;;
32872;SDS011;19224;52.462;16.898;2023-10-08T11:47:04;0.40;;;0.37;;
32872;SDS011;19224;52.462;16.898;2023-10-08T11:49:41;2.40;;;0.40;;
32872;SDS011;19224;52.462;16.898;2023-10-08T11:52:16;1.92;;;0.50;;
32872;SDS011;19224;52.462;16.898;2023-10-08T11:54:49;0.53;;;0.23;;
32872;SDS011;19224;52.462;16.898;2023-10-08T11:57:21;0.78;;;0.42;;
32872;SDS011;19224;52.462;16.898;2023-10-08T11:59:53;1.15;;;0.47;;
32872;SDS011;19224;52.462;16.898;2023-10-08T12:02:25;3.60;;;0.50;;
32872;SDS011;19224;52.462;16.898;2023-10-08T12:04:57;0.62;;;0.50;;
32872;SDS011;19224;52.462;16.898;2023-10-08T12:07:27;0.70;;;0.37;;
32872;SDS011;19224;52.462;16.898;2023-10-08T12:09:59;1.02;;;0.50;;
32872;SDS011;19224;52.462;16.898;2023-10-08T12:12:36;1.15;;;0.57;;
32872;SDS011;19224;52.462;16.898;2023-10-08T12:15:03;1.55;;;0.50;;
32872;SDS011;19224;52.462;16.898;2023-10-08T12:17:36;0.85;;;0.60;;
32872;SDS011;19224;52.462;16.898;2023-10-08T12:20:07;0.60;;;0.50;;
32872;SDS011;19224;52.462;16.898;2023-10-08T12:22:42;2.25;;;0.65;;
32872;SDS011;19224;52.462;16.898;2023-10-08T12:25:13;2.58;;;0.70;;
32872;SDS011;19224;52.462;16.898;2023-10-08T12:27:43;0.62;;;0.40;;
32872;SDS011;19224;52.462;16.898;2023-10-08T12:30:14;0.98;;;0.62;;
32872;SDS011;19224;52.462;16.898;2023-10-08T12:32:47;2.00;;;0.70;;
32872;SDS011;19224;52.462;16.898;2023-10-08T12:35:17;1.05;;;0.70;;
32872;SDS011;19224;52.462;16.898;2023-10-08T12:37:51;1.40;;;0.70;;
32872;SDS011;19224;52.462;16.898;2023-10-08T12:40:21;1.82;;;0.98;;
32872;SDS011;19224;52.462;16.898;2023-10-08T12:42:52;3.70;;;0.70;;
32872;SDS011;19224;52.462;16.898;2023-10-08T12:45:23;2.37;;;0.70;;
32872;SDS011;19224;52.462;16.898;2023-10-08T12:47:55;1.87;;;0.60;;
32872;SDS011;19224;52.462;16.898;2023-10-08T12:50:26;0.95;;;0.50;;
32872;SDS011;19224;52.462;16.898;2023-10-08T12:53:01;3.35;;;0.60;;
32872;SDS011;19224;52.462;16.898;2023-10-08T12:55:32;0.50;;;0.50;;
32872;SDS011;19224;52.462;16.898;2023-10-08T12:58:04;0.40;;;0.40;;
32872;SDS011;19224;52.462;16.898;2023-10-08T13:00:37;0.98;;;0.60;;
32872;SDS011;19224;52.462;16.898;2023-10-08T13:03:09;0.50;;;0.40;;
32872;SDS011;19224;52.462;16.898;2023-10-08T13:05:41;1.20;;;0.50;;
32872;SDS011;19224;52.462;16.898;2023-10-08T13:08:12;1.47;;;0.60;;
32872;SDS011;19224;52.462;16.898;2023-10-08T13:10:42;1.20;;;0.62;;
32872;SDS011;19224;52.462;16.898;2023-10-08T13:13:13;1.15;;;0.70;;
32872;SDS011;19224;52.462;16.898;2023-10-08T13:15:43;3.95;;;0.50;;
32872;SDS011;19224;52.462;16.898;2023-10-08T13:18:14;0.93;;;0.70;;
32872;SDS011;19224;52.462;16.898;2023-10-08T13:20:44;2.15;;;0.57;;
32872;SDS011;19224;52.462;16.898;2023-10-08T13:23:15;1.25;;;0.65;;
32872;SDS011;19224;52.462;16.898;2023-10-08T13:25:47;2.62;;;0.60;;
32872;SDS011;19224;52.462;16.898;2023-10-08T13:28:25;1.00;;;0.50;;
32872;SDS011;19224;52.462;16.898;2023-10-08T13:30:53;5.92;;;0.60;;
32872;SDS011;19224;52.462;16.898;2023-10-08T13:33:23;0.50;;;0.45;;
32872;SDS011;19224;52.462;16.898;2023-10-08T13:35:57;0.93;;;0.50;;
32872;SDS011;19224;52.462;16.898;2023-10-08T13:38:27;3.42;;;0.72;;
32872;SDS011;19224;52.462;16.898;2023-10-08T13:40:58;1.27;;;0.50;;
32872;SDS011;19224;52.462;16.898;2023-10-08T13:43:36;2.02;;;0.60;;
32872;SDS011;19224;52.462;16.898;2023-10-08T13:46:04;1.92;;;0.70;;
32872;SDS011;19224;52.462;16.898;2023-10-08T13:48:37;1.27;;;0.50;;
32872;SDS011;19224;52.462;16.898;2023-10-08T13:51:09;0.53;;;0.40;;
32872;SDS011;19224;52.462;16.898;2023-10-08T13:53:47;1.25;;;0.60;;
32872;SDS011;19224;52.462;16.898;2023-10-08T13:56:37;0.90;;;0.50;;
32872;SDS011;19224;52.462;16.898;2023-10-08T13:59:09;3.47;;;0.70;;
32872;SDS011;19224;52.462;16.898;2023-10-08T14:01:40;0.88;;;0.60;;
32872;SDS011;19224;52.462;16.898;2023-10-08T14:04:17;2.52;;;1.60;;
32872;SDS011;19224;52.462;16.898;2023-10-08T14:06:51;7.25;;;3.30;;
32872;SDS011;19224;52.462;16.898;2023-10-08T14:09:22;2.12;;;1.05;;
32872;SDS011;19224;52.462;16.898;2023-10-08T14:11:59;3.15;;;1.57;;
32872;SDS011;19224;52.462;16.898;2023-10-08T14:14:29;3.55;;;1.00;;
32872;SDS011;19224;52.462;16.898;2023-10-08T14:17:01;6.00;;;3.10;;
32872;SDS011;19224;52.462;16.898;2023-10-08T14:19:37;2.92;;;1.90;;
32872;SDS011;19224;52.462;16.898;2023-10-08T14:22:09;3.30;;;2.22;;
32872;SDS011;19224;52.462;16.898;2023-10-08T14:24:41;3.17;;;1.55;;
32872;SDS011;19224;52.462;16.898;2023-10-08T14:27:13;1.70;;;1.15;;
32872;SDS011;19224;52.462;16.898;2023-10-08T14:29:45;3.40;;;1.47;;
32872;SDS011;19224;52.462;16.898;2023-10-08T14:32:17;3.92;;;1.10;;
32872;SDS011;19224;52.462;16.898;2023-10-08T14:34:48;1.80;;;1.17;;
32872;SDS011;19224;52.462;16.898;2023-10-08T14:37:36;1.12;;;0.80;;
32872;SDS011;19224;52.462;16.898;2023-10-08T14:40:24;1.95;;;0.88;;
32872;SDS011;19224;52.462;16.898;2023-10-08T14:43:12;2.05;;;1.17;;
32872;SDS011;19224;52.462;16.898;2023-10-08T14:45:44;2.20;;;1.55;;
32872;SDS011;19224;52.462;16.898;2023-10-08T14:48:15;3.15;;;1.30;;
32872;SDS011;19224;52.462;16.898;2023-10-08T14:50:45;3.15;;;1.30;;
32872;SDS011;19224;52.462;16.898;2023-10-08T14:53:16;2.25;;;1.30;;
32872;SDS011;19224;52.462;16.898;2023-10-08T14:55:47;3.55;;;1.10;;
32872;SDS011;19224;52.462;16.898;2023-10-08T14:58:18;2.90;;;0.90;;
32872;SDS011;19224;52.462;16.898;2023-10-08T15:00:48;1.60;;;1.00;;
32872;SDS011;19224;52.462;16.898;2023-10-08T15:03:20;1.40;;;1.00;;
32872;SDS011;19224;52.462;16.898;2023-10-08T15:05:50;2.00;;;1.30;;
32872;SDS011;19224;52.462;16.898;2023-10-08T15:08:20;3.60;;;1.37;;
32872;SDS011;19224;52.462;16.898;2023-10-08T15:10:51;6.53;;;2.33;;
32872;SDS011;19224;52.462;16.898;2023-10-08T15:13:21;3.72;;;1.82;;